createdAt,value
2017-09-30T00:00:17.461Z,87.32
2017-09-30T00:00:57.876Z,87.55
2017-09-30T00:01:38.417Z,87.32
2017-09-30T00:02:19.257Z,87.32
2017-09-30T00:02:59.909Z,87.6
2017-09-30T00:03:40.415Z,87.51
2017-09-30T00:04:21.035Z,87.51
2017-09-30T00:05:01.492Z,87.51
2017-09-30T00:05:42.176Z,87.51
2017-09-30T00:06:22.690Z,87.51
2017-09-30T00:07:03.381Z,87.32
2017-09-30T00:07:43.995Z,87.32
2017-09-30T00:08:24.686Z,87.46
2017-09-30T00:09:05.369Z,86.98
2017-09-30T00:09:46.177Z,87.12
2017-09-30T00:10:27.166Z,87.41
2017-09-30T00:11:08.718Z,87.36
2017-09-30T00:11:51.080Z,87.07
2017-09-30T00:12:31.699Z,86.83
2017-09-30T00:13:12.368Z,87.07
2017-09-30T00:13:52.934Z,86.98
2017-09-30T00:14:33.481Z,86.88
2017-09-30T00:15:14.047Z,87.22
2017-09-30T00:15:54.724Z,87.41
2017-09-30T00:16:35.259Z,87.22
2017-09-30T00:17:15.911Z,87.03
2017-09-30T00:17:56.507Z,87.22
2017-09-30T00:18:37.075Z,87.03
2017-09-30T00:19:17.726Z,87.03
2017-09-30T00:19:58.302Z,87.22
2017-09-30T00:20:38.867Z,87.41
2017-09-30T00:21:19.447Z,87.51
2017-09-30T00:22:00.047Z,87.12
2017-09-30T00:23:50.293Z,87.22
2017-09-30T00:24:30.975Z,86.83
2017-09-30T00:25:11.548Z,87.26
2017-09-30T00:25:52.128Z,86.83
2017-09-30T00:26:32.660Z,86.83
2017-09-30T00:27:13.302Z,87.41
2017-09-30T00:27:53.836Z,87.51
2017-09-30T00:28:34.398Z,87.51
2017-09-30T00:29:14.928Z,87.03
2017-09-30T00:29:55.470Z,87.22
2017-09-30T00:30:36.029Z,87.51
2017-09-30T00:31:16.548Z,87.51
2017-09-30T00:31:57.135Z,87.7
2017-09-30T00:32:37.700Z,87.12
2017-09-30T00:33:18.272Z,87.6
2017-09-30T00:33:58.864Z,87.41
2017-09-30T00:34:39.503Z,87.32
2017-09-30T00:35:20.008Z,86.93
2017-09-30T00:36:00.566Z,87.41
2017-09-30T00:36:41.105Z,87.41
2017-09-30T00:37:21.638Z,87.32
2017-09-30T00:38:02.286Z,87.51
2017-09-30T00:38:42.875Z,87.41
2017-09-30T00:39:23.407Z,87.51
2017-09-30T00:40:03.923Z,87.03
2017-09-30T00:40:44.498Z,87.22
2017-09-30T00:41:25.005Z,87.22
2017-09-30T00:42:05.595Z,87.7
2017-09-30T00:42:46.155Z,87.03
2017-09-30T00:43:26.682Z,87.22
2017-09-30T00:44:07.168Z,86.93
2017-09-30T00:44:47.744Z,86.93
2017-09-30T00:45:28.292Z,87.6
2017-09-30T00:46:11.874Z,87.41
2017-09-30T00:46:52.425Z,87.6
2017-09-30T00:47:32.984Z,87.32
2017-09-30T00:48:13.529Z,88.09
2017-09-30T00:48:54.174Z,87.46
2017-09-30T00:49:34.787Z,87.51
2017-09-30T00:50:15.294Z,87.9
2017-09-30T00:50:55.832Z,87.8
2017-09-30T00:51:36.367Z,88.18
2017-09-30T00:52:16.955Z,88.09
2017-09-30T00:52:57.477Z,87.51
2017-09-30T00:53:38.315Z,87.51
2017-09-30T00:54:19.194Z,87.41
2017-09-30T00:55:00.044Z,87.6
2017-09-30T00:55:40.787Z,87.6
2017-09-30T00:56:21.282Z,87.8
2017-09-30T00:57:01.916Z,87.32
2017-09-30T00:57:42.363Z,87.6
2017-09-30T00:58:22.937Z,87.41
2017-09-30T00:59:03.477Z,87.22
2017-09-30T00:59:44.015Z,87.41
2017-09-30T01:00:24.667Z,87.51
2017-09-30T01:01:05.105Z,87.51
2017-09-30T01:01:45.662Z,87.51
2017-09-30T01:02:26.168Z,87.51
2017-09-30T01:03:06.746Z,87.22
2017-09-30T01:03:47.289Z,87.51
2017-09-30T01:04:27.796Z,87.51
2017-09-30T01:05:08.336Z,87.51
2017-09-30T01:05:48.918Z,87.51
2017-09-30T01:06:29.460Z,87.41
2017-09-30T01:07:09.963Z,87.51
2017-09-30T01:07:50.506Z,87.22
2017-09-30T01:08:31.072Z,87.41
2017-09-30T01:09:11.615Z,87.41
2017-09-30T01:09:52.171Z,87.6
2017-09-30T01:10:32.645Z,87.41
2017-09-30T01:11:13.257Z,87.51
2017-09-30T01:11:53.833Z,87.41
2017-09-30T01:12:34.487Z,87.32
2017-09-30T01:13:14.886Z,87.46
2017-09-30T01:13:55.403Z,87.51
2017-09-30T01:14:35.993Z,87.9
2017-09-30T01:15:16.496Z,87.46
2017-09-30T01:15:57.017Z,87.46
2017-09-30T01:16:37.586Z,87.51
2017-09-30T01:17:18.266Z,87.56
2017-09-30T01:17:58.773Z,87.41
2017-09-30T01:18:39.357Z,87.32
2017-09-30T01:19:19.858Z,87.37
2017-09-30T01:20:00.400Z,87.6
2017-09-30T01:20:40.986Z,87.7
2017-09-30T01:21:21.470Z,87.37
2017-09-30T01:22:02.059Z,87.51
2017-09-30T01:22:42.556Z,87.51
2017-09-30T01:23:23.109Z,86.93
2017-09-30T01:24:03.645Z,86.99
2017-09-30T01:24:44.173Z,87.18
2017-09-30T01:25:24.682Z,86.79
2017-09-30T01:26:05.278Z,87.37
2017-09-30T01:26:45.842Z,87.22
2017-09-30T01:27:26.384Z,86.83
2017-09-30T01:28:06.907Z,87.12
2017-09-30T01:28:47.545Z,87.22
2017-09-30T01:29:28.069Z,87.03
2017-09-30T01:30:08.603Z,87.41
2017-09-30T01:30:49.078Z,86.79
2017-09-30T01:31:29.646Z,87.37
2017-09-30T01:32:10.167Z,87.37
2017-09-30T01:32:50.717Z,86.99
2017-09-30T01:33:31.248Z,87.27
2017-09-30T01:34:11.816Z,87.18
2017-09-30T01:34:52.397Z,87.27
2017-09-30T01:35:32.928Z,87.37
2017-09-30T01:36:13.446Z,86.79
2017-09-30T01:36:54.011Z,86.89
2017-09-30T01:37:34.506Z,86.69
2017-09-30T01:38:15.035Z,87.27
2017-09-30T01:38:55.606Z,87.37
2017-09-30T01:39:36.173Z,87.18
2017-09-30T01:40:16.670Z,87.18
2017-09-30T01:40:57.215Z,86.69
2017-09-30T01:41:37.707Z,86.79
2017-09-30T01:42:18.298Z,86.74
2017-09-30T01:42:58.922Z,86.6
2017-09-30T01:43:39.428Z,86.6
2017-09-30T01:44:19.980Z,86.6
2017-09-30T01:45:00.560Z,86.79
2017-09-30T01:45:41.097Z,86.79
2017-09-30T01:46:21.668Z,86.6
2017-09-30T01:47:02.705Z,86.55
2017-09-30T01:47:43.005Z,86.79
2017-09-30T01:48:23.506Z,86.6
2017-09-30T01:49:04.105Z,86.6
2017-09-30T01:49:44.691Z,86.16
2017-09-30T01:50:25.169Z,86.89
2017-09-30T01:51:06.015Z,86.51
2017-09-30T01:51:46.392Z,86.79
2017-09-30T01:52:26.941Z,86.69
2017-09-30T01:53:07.588Z,86.99
2017-09-30T01:53:48.082Z,86.69
2017-09-30T01:54:28.646Z,86.6
2017-09-30T01:55:09.241Z,86.79
2017-09-30T01:55:49.790Z,86.79
2017-09-30T01:56:30.247Z,86.51
2017-09-30T01:57:10.904Z,86.6
2017-09-30T01:57:52.112Z,86.79
2017-09-30T01:58:32.711Z,86.79
2017-09-30T01:59:13.265Z,87.18
2017-09-30T01:59:53.844Z,86.51
2017-09-30T02:00:34.434Z,86.51
2017-09-30T02:01:15.015Z,86.6
2017-09-30T02:01:55.563Z,86.69
2017-09-30T02:02:36.064Z,86.6
2017-09-30T02:03:16.623Z,86.79
2017-09-30T02:03:57.152Z,86.51
2017-09-30T02:04:37.716Z,86.6
2017-09-30T02:05:18.237Z,86.79
2017-09-30T02:05:58.859Z,86.79
2017-09-30T02:06:39.366Z,86.69
2017-09-30T02:07:19.921Z,86.69
2017-09-30T02:09:34.430Z,86.79
2017-09-30T02:10:14.905Z,86.02
2017-09-30T02:10:55.445Z,86.6
2017-09-30T02:11:35.985Z,86.6
2017-09-30T02:12:16.540Z,86.79
2017-09-30T02:12:57.078Z,86.89
2017-09-30T02:13:37.588Z,86.41
2017-09-30T02:14:18.132Z,86.6
2017-09-30T02:14:58.659Z,87.08
2017-09-30T02:15:39.876Z,86.6
2017-09-30T02:16:20.792Z,86.69
2017-09-30T02:17:01.100Z,86.79
2017-09-30T02:17:41.781Z,86.79
2017-09-30T02:18:22.378Z,87.27
2017-09-30T02:19:02.889Z,86.99
2017-09-30T02:19:43.445Z,87.18
2017-09-30T02:20:24.092Z,87.37
2017-09-30T02:21:04.990Z,86.99
2017-09-30T02:21:45.562Z,86.99
2017-09-30T02:22:26.094Z,86.69
2017-09-30T02:23:06.738Z,87.27
2017-09-30T02:23:47.270Z,87.27
2017-09-30T02:24:27.830Z,87.08
2017-09-30T02:25:08.400Z,87.18
2017-09-30T02:25:48.940Z,87.08
2017-09-30T02:26:29.507Z,86.69
2017-09-30T02:27:10.054Z,86.79
2017-09-30T02:27:50.636Z,87.27
2017-09-30T02:28:31.282Z,87.18
2017-09-30T02:29:11.894Z,86.99
2017-09-30T02:29:52.379Z,86.99
2017-09-30T02:30:32.986Z,86.99
2017-09-30T02:31:13.546Z,87.37
2017-09-30T02:31:54.046Z,87.18
2017-09-30T02:32:34.598Z,87.18
2017-09-30T02:33:15.159Z,87.37
2017-09-30T02:33:55.664Z,86.69
2017-09-30T02:34:36.332Z,87.27
2017-09-30T02:35:16.886Z,87.27
2017-09-30T02:35:57.597Z,87.46
2017-09-30T02:36:38.223Z,86.79
2017-09-30T02:37:18.793Z,87.18
2017-09-30T02:37:59.310Z,86.79
2017-09-30T02:38:39.869Z,86.6
2017-09-30T02:39:20.489Z,86.89
2017-09-30T02:40:01.037Z,87.37
2017-09-30T02:40:41.561Z,87.46
2017-09-30T02:41:22.122Z,86.99
2017-09-30T02:42:02.624Z,86.79
2017-09-30T02:42:43.220Z,87.18
2017-09-30T02:43:23.772Z,87.08
2017-09-30T02:44:04.274Z,86.99
2017-09-30T02:44:44.833Z,87.08
2017-09-30T02:45:25.381Z,87.27
2017-09-30T02:46:05.991Z,87.37
2017-09-30T02:46:46.459Z,87.08
2017-09-30T02:47:27.033Z,87.37
2017-09-30T02:48:07.609Z,87.46
2017-09-30T02:48:48.195Z,87.56
2017-09-30T02:49:28.737Z,87.37
2017-09-30T02:50:09.279Z,87.37
2017-09-30T02:50:49.807Z,87.08
2017-09-30T02:51:30.340Z,87.08
2017-09-30T02:52:10.945Z,86.79
2017-09-30T02:52:51.492Z,86.79
2017-09-30T02:53:32.056Z,87.56
2017-09-30T02:54:12.574Z,87.46
2017-09-30T02:54:53.077Z,87.66
2017-09-30T02:55:33.706Z,87.66
2017-09-30T02:56:14.259Z,87.46
2017-09-30T02:56:54.863Z,87.46
2017-09-30T02:57:35.484Z,87.66
2017-09-30T02:58:16.027Z,87.27
2017-09-30T02:58:56.482Z,86.99
2017-09-30T02:59:37.099Z,87.37
2017-09-30T03:00:17.591Z,87.46
2017-09-30T03:00:58.226Z,87.56
2017-09-30T03:01:38.850Z,87.27
2017-09-30T03:02:19.380Z,86.79
2017-09-30T03:02:59.920Z,86.79
2017-09-30T03:03:40.437Z,86.69
2017-09-30T03:04:20.972Z,87.37
2017-09-30T03:05:01.540Z,86.79
2017-09-30T03:05:42.079Z,86.89
2017-09-30T03:06:22.598Z,87.08
2017-09-30T03:07:03.087Z,87.37
2017-09-30T03:07:43.641Z,86.99
2017-09-30T03:08:24.208Z,87.37
2017-09-30T03:09:04.787Z,87.52
2017-09-30T03:09:45.308Z,87.95
2017-09-30T03:10:25.871Z,88.14
2017-09-30T03:11:06.444Z,87.85
2017-09-30T03:11:46.966Z,87.95
2017-09-30T03:12:27.586Z,87.56
2017-09-30T03:13:08.134Z,87.46
2017-09-30T03:13:48.677Z,87.27
2017-09-30T03:14:29.210Z,87.18
2017-09-30T03:15:09.757Z,87.46
2017-09-30T03:15:50.243Z,87.37
2017-09-30T03:16:30.903Z,87.37
2017-09-30T03:17:11.420Z,87.37
2017-09-30T03:17:51.933Z,87.66
2017-09-30T03:18:32.508Z,87.18
2017-09-30T03:19:13.057Z,86.79
2017-09-30T03:19:53.612Z,86.99
2017-09-30T03:20:34.128Z,87.46
2017-09-30T03:21:14.669Z,87.37
2017-09-30T03:21:55.259Z,87.27
2017-09-30T03:22:35.794Z,87.37
2017-09-30T03:23:16.293Z,87.76
2017-09-30T03:23:56.884Z,87.56
2017-09-30T03:24:37.446Z,87.37
2017-09-30T03:25:17.986Z,87.46
2017-09-30T03:25:58.538Z,87.46
2017-09-30T03:26:39.291Z,87.56
2017-09-30T03:27:19.756Z,87.56
2017-09-30T03:28:00.447Z,87.37
2017-09-30T03:28:40.974Z,87.37
2017-09-30T03:29:21.500Z,87.56
2017-09-30T03:30:02.057Z,87.37
2017-09-30T03:30:42.602Z,87.66
2017-09-30T03:31:23.158Z,87.37
2017-09-30T03:32:03.692Z,87.18
2017-09-30T03:32:44.270Z,86.99
2017-09-30T03:33:24.843Z,87.37
2017-09-30T03:34:05.417Z,86.99
2017-09-30T03:34:46.348Z,87.37
2017-09-30T03:35:26.968Z,87.27
2017-09-30T03:36:07.473Z,87.37
2017-09-30T03:36:48.036Z,87.85
2017-09-30T03:37:28.580Z,87.37
2017-09-30T03:38:09.118Z,87.33
2017-09-30T03:38:49.684Z,88.1
2017-09-30T03:39:30.203Z,87.81
2017-09-30T03:40:10.737Z,87.9
2017-09-30T03:40:51.241Z,87.71
2017-09-30T03:41:31.798Z,87.9
2017-09-30T03:42:12.337Z,87.9
2017-09-30T03:42:52.839Z,88.29
2017-09-30T03:43:33.391Z,88.39
2017-09-30T03:44:13.959Z,87.52
2017-09-30T03:44:54.469Z,87.9
2017-09-30T03:45:35.109Z,87.95
2017-09-30T03:46:15.583Z,87.46
2017-09-30T03:46:56.176Z,87.46
2017-09-30T03:47:36.722Z,87.37
2017-09-30T03:48:17.255Z,87.66
2017-09-30T03:48:57.813Z,87.37
2017-09-30T03:49:38.282Z,87.62
2017-09-30T03:50:18.876Z,87.66
2017-09-30T03:50:59.401Z,87.46
2017-09-30T03:51:39.939Z,87.46
2017-09-30T03:52:20.539Z,86.89
2017-09-30T03:53:01.090Z,87.08
2017-09-30T03:53:41.602Z,86.89
2017-09-30T03:55:29.889Z,86.99
2017-09-30T03:56:10.253Z,86.99
2017-09-30T03:56:50.809Z,86.99
2017-09-30T03:57:31.377Z,87.46
2017-09-30T03:58:11.951Z,87.27
2017-09-30T03:58:52.515Z,87.37
2017-09-30T03:59:33.044Z,86.99
2017-09-30T04:00:13.581Z,87.46
2017-09-30T04:00:54.147Z,87.52
2017-09-30T04:01:34.667Z,87.37
2017-09-30T04:02:15.227Z,87.33
2017-09-30T04:02:55.784Z,87.66
2017-09-30T04:03:36.365Z,87.33
2017-09-30T04:04:16.872Z,87.18
2017-09-30T04:04:57.461Z,87.46
2017-09-30T04:05:38.055Z,87.56
2017-09-30T04:06:18.572Z,87.04
2017-09-30T04:06:59.165Z,86.69
2017-09-30T04:07:39.675Z,87.04
2017-09-30T04:08:20.214Z,86.89
2017-09-30T04:09:00.754Z,87.33
2017-09-30T04:09:41.309Z,87.18
2017-09-30T04:10:21.837Z,86.79
2017-09-30T04:11:02.351Z,86.99
2017-09-30T04:11:42.901Z,86.75
2017-09-30T04:12:23.404Z,86.6
2017-09-30T04:13:03.998Z,86.56
2017-09-30T04:13:44.515Z,86.65
2017-09-30T04:14:25.097Z,86.6
2017-09-30T04:15:05.649Z,87.18
2017-09-30T04:15:46.147Z,87.04
2017-09-30T04:16:26.741Z,87.13
2017-09-30T04:17:07.264Z,86.75
2017-09-30T04:17:47.828Z,87.13
2017-09-30T04:18:28.391Z,87.23
2017-09-30T04:19:08.861Z,87.18
2017-09-30T04:19:49.486Z,86.69
2017-09-30T04:20:30.041Z,86.65
2017-09-30T04:21:10.557Z,86.56
2017-09-30T04:21:51.132Z,87.13
2017-09-30T04:22:31.676Z,86.85
2017-09-30T04:23:12.167Z,87.33
2017-09-30T04:23:52.720Z,87.04
2017-09-30T04:24:33.277Z,87.33
2017-09-30T04:25:13.875Z,87.04
2017-09-30T04:25:54.513Z,86.65
2017-09-30T04:26:34.978Z,87.23
2017-09-30T04:27:15.520Z,86.85
2017-09-30T04:27:56.054Z,87.13
2017-09-30T04:28:36.578Z,86.75
2017-09-30T04:29:17.212Z,86.56
2017-09-30T04:29:57.739Z,86.65
2017-09-30T04:30:38.285Z,86.75
2017-09-30T04:31:18.859Z,86.18
2017-09-30T04:31:59.514Z,86.08
2017-09-30T04:32:40.062Z,86.08
2017-09-30T04:33:20.585Z,86.65
2017-09-30T04:34:01.154Z,86.65
2017-09-30T04:34:41.712Z,86.36
2017-09-30T04:35:22.242Z,86.85
2017-09-30T04:36:02.730Z,86.08
2017-09-30T04:36:43.243Z,86.56
2017-09-30T04:37:23.825Z,86.56
2017-09-30T04:38:04.378Z,86.75
2017-09-30T04:38:44.861Z,86.94
2017-09-30T04:39:25.472Z,87.33
2017-09-30T04:40:06.063Z,87.23
2017-09-30T04:40:46.559Z,87.13
2017-09-30T04:41:27.117Z,86.56
2017-09-30T04:42:07.589Z,86.56
2017-09-30T04:42:48.142Z,87.33
2017-09-30T04:43:28.757Z,87.04
2017-09-30T04:44:09.238Z,87.23
2017-09-30T04:44:49.756Z,86.85
2017-09-30T04:45:30.300Z,87.13
2017-09-30T04:46:10.848Z,87.23
2017-09-30T04:48:24.467Z,86.75
2017-09-30T04:49:04.890Z,86.56
2017-09-30T04:49:45.385Z,86.46
2017-09-30T04:50:25.991Z,86.36
2017-09-30T04:51:06.513Z,86.75
2017-09-30T04:51:47.092Z,86.56
2017-09-30T04:52:27.628Z,86.75
2017-09-30T04:53:08.154Z,86.56
2017-09-30T04:53:48.717Z,86.56
2017-09-30T04:54:29.234Z,86.46
2017-09-30T04:55:09.741Z,86.65
2017-09-30T04:55:50.862Z,86.56
2017-09-30T04:56:31.396Z,86.56
2017-09-30T04:57:11.924Z,86.46
2017-09-30T04:57:52.451Z,86.46
2017-09-30T04:58:33.032Z,86.46
2017-09-30T04:59:13.557Z,86.75
2017-09-30T04:59:54.103Z,86.56
2017-09-30T05:00:34.698Z,86.65
2017-09-30T05:01:15.242Z,86.56
2017-09-30T05:01:55.788Z,86.08
2017-09-30T05:02:36.455Z,86.36
2017-09-30T05:03:16.988Z,86.18
2017-09-30T05:03:57.503Z,86.56
2017-09-30T05:04:38.066Z,86.56
2017-09-30T05:05:18.609Z,86.85
2017-09-30T05:05:59.182Z,86.65
2017-09-30T05:06:39.648Z,86.94
2017-09-30T05:07:20.238Z,86.75
2017-09-30T05:08:00.785Z,87.13
2017-09-30T05:08:41.348Z,87.13
2017-09-30T05:09:21.859Z,86.85
2017-09-30T05:10:02.464Z,87.04
2017-09-30T05:10:43.004Z,86.94
2017-09-30T05:11:23.706Z,87.13
2017-09-30T05:12:04.166Z,86.75
2017-09-30T05:12:44.689Z,87.13
2017-09-30T05:13:25.248Z,87.04
2017-09-30T05:14:05.821Z,87.13
2017-09-30T05:14:46.401Z,87.33
2017-09-30T05:15:27.071Z,87.13
2017-09-30T05:16:07.686Z,87.62
2017-09-30T05:16:48.292Z,87.42
2017-09-30T05:17:28.836Z,87.13
2017-09-30T05:18:09.352Z,87.33
2017-09-30T05:18:49.958Z,86.75
2017-09-30T05:19:30.481Z,87.33
2017-09-30T05:20:11.000Z,86.94
2017-09-30T05:20:51.493Z,87.23
2017-09-30T05:21:32.022Z,86.65
2017-09-30T05:22:12.605Z,86.94
2017-09-30T05:22:53.125Z,86.75
2017-09-30T05:23:33.726Z,87.23
2017-09-30T05:24:14.177Z,87.33
2017-09-30T05:24:54.755Z,87.04
2017-09-30T05:25:35.307Z,86.75
2017-09-30T05:26:15.870Z,87.42
2017-09-30T05:26:56.440Z,87.42
2017-09-30T05:27:36.950Z,87.52
2017-09-30T05:28:17.500Z,87.52
2017-09-30T05:28:58.035Z,87.23
2017-09-30T05:29:38.565Z,87.33
2017-09-30T05:30:19.077Z,87.9
2017-09-30T05:30:59.620Z,88
2017-09-30T05:31:40.154Z,87.9
2017-09-30T05:32:20.742Z,87.71
2017-09-30T05:33:01.269Z,87.81
2017-09-30T05:33:42.687Z,87.52
2017-09-30T05:34:23.196Z,88
2017-09-30T05:35:03.861Z,87.42
2017-09-30T05:35:44.413Z,88.34
2017-09-30T05:36:24.941Z,88
2017-09-30T05:37:05.465Z,88
2017-09-30T05:37:46.186Z,88.24
2017-09-30T05:38:26.736Z,88.29
2017-09-30T05:39:07.326Z,88.39
2017-09-30T05:41:23.267Z,88.19
2017-09-30T05:42:03.790Z,87.71
2017-09-30T05:42:44.339Z,87.62
2017-09-30T05:43:24.913Z,87.33
2017-09-30T05:44:05.498Z,87.33
2017-09-30T05:44:46.093Z,87.42
2017-09-30T05:45:26.630Z,87.52
2017-09-30T05:46:07.189Z,87.23
2017-09-30T05:46:47.694Z,88.29
2017-09-30T05:47:28.287Z,88
2017-09-30T05:48:08.845Z,88
2017-09-30T05:48:49.395Z,87.04
2017-09-30T05:49:29.984Z,87.42
2017-09-30T05:50:10.549Z,87.33
2017-09-30T05:50:51.067Z,87.33
2017-09-30T05:51:31.593Z,87.37
2017-09-30T05:52:12.163Z,86.65
2017-09-30T05:52:52.702Z,87.37
2017-09-30T05:53:33.270Z,87.13
2017-09-30T05:54:15.833Z,86.75
2017-09-30T05:54:56.323Z,87.23
2017-09-30T05:55:36.965Z,87.62
2017-09-30T05:56:17.479Z,87.42
2017-09-30T05:56:58.077Z,87.27
2017-09-30T05:57:38.586Z,87.37
2017-09-30T05:58:19.200Z,87.33
2017-09-30T05:58:59.831Z,87.18
2017-09-30T05:59:40.497Z,87.18
2017-09-30T06:00:21.054Z,87.37
2017-09-30T06:01:01.693Z,87.18
2017-09-30T06:01:42.291Z,86.79
2017-09-30T06:02:22.932Z,86.79
2017-09-30T06:03:03.470Z,86.51
2017-09-30T06:03:44.086Z,86.6
2017-09-30T06:04:24.653Z,86.79
2017-09-30T06:06:23.768Z,86.89
2017-09-30T06:07:04.294Z,87.18
2017-09-30T06:07:44.893Z,86.69
2017-09-30T06:08:25.471Z,86.41
2017-09-30T06:09:06.019Z,86.22
2017-09-30T06:09:46.498Z,86.51
2017-09-30T06:10:27.062Z,86.31
2017-09-30T06:11:07.618Z,85.64
2017-09-30T06:11:48.140Z,86.12
2017-09-30T06:12:28.620Z,85.54
2017-09-30T06:13:09.176Z,85.44
2017-09-30T06:13:49.783Z,86.22
2017-09-30T06:14:30.287Z,85.74
2017-09-30T06:15:10.876Z,85.83
2017-09-30T06:15:51.386Z,86.02
2017-09-30T06:16:31.918Z,85.74
2017-09-30T06:17:12.470Z,86.31
2017-09-30T06:17:52.995Z,86.22
2017-09-30T06:18:33.480Z,86.12
2017-09-30T06:19:14.024Z,86.22
2017-09-30T06:19:55.343Z,86.22
2017-09-30T06:20:35.898Z,85.74
2017-09-30T06:21:16.466Z,85.35
2017-09-30T06:21:56.992Z,85.44
2017-09-30T06:22:37.478Z,85.3
2017-09-30T06:23:18.016Z,85.64
2017-09-30T06:23:58.630Z,85.35
2017-09-30T06:24:39.185Z,85.44
2017-09-30T06:25:19.806Z,85.74
2017-09-30T06:26:00.342Z,85.1
2017-09-30T06:26:40.918Z,84.81
2017-09-30T06:27:22.139Z,85.25
2017-09-30T06:28:02.685Z,85.64
2017-09-30T06:28:43.279Z,85.54
2017-09-30T06:29:24.133Z,85.54
2017-09-30T06:30:04.705Z,85.3
2017-09-30T06:30:45.336Z,85.1
2017-09-30T06:31:25.843Z,85.2
2017-09-30T06:32:06.332Z,84.91
2017-09-30T06:32:46.916Z,85.2
2017-09-30T06:33:27.387Z,85.1
2017-09-30T06:34:07.886Z,84.62
2017-09-30T06:34:48.426Z,84.62
2017-09-30T06:35:28.972Z,84.14
2017-09-30T06:36:09.509Z,83.56
2017-09-30T06:36:50.303Z,84.14
2017-09-30T06:37:30.876Z,84.97
2017-09-30T06:38:11.453Z,84.53
2017-09-30T06:38:51.966Z,83.62
2017-09-30T06:39:32.489Z,83.95
2017-09-30T06:40:13.187Z,84.53
2017-09-30T06:40:53.799Z,83.56
2017-09-30T06:41:34.193Z,84.33
2017-09-30T06:42:14.760Z,84.05
2017-09-30T06:42:55.627Z,83.95
2017-09-30T06:43:36.158Z,83.47
2017-09-30T06:44:16.695Z,83.51
2017-09-30T06:44:57.276Z,83.47
2017-09-30T06:45:37.811Z,83.95
2017-09-30T06:46:18.564Z,83.28
2017-09-30T06:46:59.155Z,84.14
2017-09-30T06:47:39.817Z,83.56
2017-09-30T06:48:20.425Z,83.56
2017-09-30T06:49:00.949Z,83.56
2017-09-30T06:49:41.484Z,83.28
2017-09-30T06:50:21.981Z,83.66
2017-09-30T06:51:02.545Z,83.66
2017-09-30T06:51:43.250Z,84.43
2017-09-30T06:52:23.952Z,83.56
2017-09-30T06:53:04.492Z,83.85
2017-09-30T06:53:45.861Z,84.23
2017-09-30T06:54:25.602Z,83.95
2017-09-30T06:55:14.345Z,83.47
2017-09-30T06:56:03.887Z,84.05
2017-09-30T06:56:46.202Z,83.85
2017-09-30T06:57:26.811Z,84.23
2017-09-30T06:58:07.369Z,84.33
2017-09-30T06:58:48.008Z,83.75
2017-09-30T06:59:28.465Z,84.43
2017-09-30T07:00:09.057Z,84.43
2017-09-30T07:00:49.647Z,84.23
2017-09-30T07:01:30.217Z,84.43
2017-09-30T07:02:10.730Z,84.72
2017-09-30T07:02:51.319Z,84.43
2017-09-30T07:03:31.821Z,84.53
2017-09-30T07:04:12.338Z,84.81
2017-09-30T07:04:52.917Z,84.72
2017-09-30T07:05:33.483Z,84.62
2017-09-30T07:06:14.039Z,84.72
2017-09-30T07:06:54.552Z,84.43
2017-09-30T07:07:35.136Z,84.81
2017-09-30T07:08:15.693Z,84.43
2017-09-30T07:08:56.288Z,85
2017-09-30T07:09:36.853Z,84.81
2017-09-30T07:10:17.383Z,84.91
2017-09-30T07:10:57.931Z,84.43
2017-09-30T07:11:38.473Z,84.62
2017-09-30T07:12:19.008Z,84.23
2017-09-30T07:12:59.554Z,83.61
2017-09-30T07:13:40.195Z,83.99
2017-09-30T07:14:20.755Z,83.89
2017-09-30T07:15:01.294Z,84.05
2017-09-30T07:15:41.847Z,84.33
2017-09-30T07:16:22.337Z,83.85
2017-09-30T07:17:02.921Z,84.05
2017-09-30T07:17:43.476Z,84.05
2017-09-30T07:18:24.907Z,84.33
2017-09-30T07:19:05.449Z,84.05
2017-09-30T07:19:45.986Z,83.89
2017-09-30T07:20:26.566Z,84.23
2017-09-30T07:21:07.061Z,83.85
2017-09-30T07:21:47.646Z,84.05
2017-09-30T07:22:28.217Z,84.14
2017-09-30T07:23:08.713Z,84.28
2017-09-30T07:23:49.302Z,83.7
2017-09-30T07:24:29.940Z,83.85
2017-09-30T07:25:10.486Z,83.89
2017-09-30T07:27:23.752Z,84.09
2017-09-30T07:28:04.293Z,84.09
2017-09-30T07:28:44.855Z,84.28
2017-09-30T07:29:25.403Z,83.99
2017-09-30T07:30:05.998Z,84.18
2017-09-30T07:30:46.505Z,84.33
2017-09-30T07:31:26.998Z,84.47
2017-09-30T07:32:07.591Z,83.99
2017-09-30T07:32:48.131Z,84.28
2017-09-30T07:33:28.665Z,84.18
2017-09-30T07:34:09.258Z,84.09
2017-09-30T07:34:49.798Z,83.95
2017-09-30T07:35:30.536Z,84.14
2017-09-30T07:36:11.060Z,84.43
2017-09-30T07:36:51.680Z,83.51
2017-09-30T07:37:32.171Z,84.33
2017-09-30T07:38:12.703Z,84.28
2017-09-30T07:38:53.233Z,83.66
2017-09-30T07:39:33.797Z,84.33
2017-09-30T07:40:14.342Z,84.23
2017-09-30T07:40:54.911Z,84.05
2017-09-30T07:41:35.406Z,83.56
2017-09-30T07:42:16.035Z,84.38
2017-09-30T07:42:56.543Z,84.18
2017-09-30T07:43:37.160Z,83.7
2017-09-30T07:44:17.673Z,83.41
2017-09-30T07:44:58.228Z,83.41
2017-09-30T07:45:38.762Z,83.51
2017-09-30T07:46:19.300Z,84.09
2017-09-30T07:46:59.838Z,83.51
2017-09-30T07:47:40.354Z,83.89
2017-09-30T07:48:21.083Z,83.51
2017-09-30T07:49:01.627Z,83.03
2017-09-30T07:49:42.192Z,82.93
2017-09-30T07:50:22.773Z,82.93
2017-09-30T07:51:03.270Z,83.41
2017-09-30T07:51:43.861Z,83.7
2017-09-30T07:52:24.429Z,83.41
2017-09-30T07:53:04.942Z,82.74
2017-09-30T07:53:46.457Z,82.74
2017-09-30T07:54:26.939Z,83.51
2017-09-30T07:55:07.521Z,83.61
2017-09-30T07:55:48.102Z,84.18
2017-09-30T07:56:28.639Z,83.22
2017-09-30T07:57:09.163Z,82.93
2017-09-30T07:57:49.714Z,82.93
2017-09-30T07:58:30.261Z,82.54
2017-09-30T07:59:10.827Z,82.87
2017-09-30T07:59:51.362Z,82.49
2017-09-30T08:00:31.916Z,82.49
2017-09-30T08:01:12.458Z,81.91
2017-09-30T08:01:53.030Z,82.49
2017-09-30T08:02:33.639Z,82.39
2017-09-30T08:03:14.170Z,81.81
2017-09-30T08:03:54.820Z,81.91
2017-09-30T08:04:35.365Z,81.33
2017-09-30T08:05:15.898Z,81.24
2017-09-30T08:05:56.570Z,81.52
2017-09-30T08:06:37.081Z,81.52
2017-09-30T08:07:17.667Z,81.33
2017-09-30T08:07:58.181Z,81.43
2017-09-30T08:08:38.718Z,81.62
2017-09-30T08:09:19.271Z,81.57
2017-09-30T08:09:59.830Z,80.89
2017-09-30T08:10:40.429Z,80.94
2017-09-30T08:11:20.987Z,81.57
2017-09-30T08:12:01.615Z,81.66
2017-09-30T08:12:42.150Z,81.66
2017-09-30T08:13:22.756Z,81.57
2017-09-30T08:14:03.374Z,81.24
2017-09-30T08:14:43.922Z,81.27
2017-09-30T08:15:24.460Z,81.57
2017-09-30T08:16:05.042Z,82.14
2017-09-30T08:16:45.587Z,81.37
2017-09-30T08:17:26.137Z,81.95
2017-09-30T08:18:06.649Z,82.14
2017-09-30T08:18:47.161Z,82.1
2017-09-30T08:19:27.728Z,81.66
2017-09-30T08:20:08.261Z,81.76
2017-09-30T08:20:48.807Z,82.1
2017-09-30T08:21:29.321Z,82.59
2017-09-30T08:22:09.966Z,82.87
2017-09-30T08:22:50.476Z,82.78
2017-09-30T08:23:31.070Z,82.59
2017-09-30T08:24:11.635Z,82.68
2017-09-30T08:24:52.480Z,82.49
2017-09-30T08:25:32.992Z,82.59
2017-09-30T08:26:13.526Z,82.68
2017-09-30T08:26:54.059Z,82.49
2017-09-30T08:27:34.635Z,82.97
2017-09-30T08:28:15.173Z,82.39
2017-09-30T08:28:55.765Z,82.49
2017-09-30T08:29:36.319Z,82.49
2017-09-30T08:30:16.816Z,82.49
2017-09-30T08:30:57.380Z,82.59
2017-09-30T08:31:37.920Z,82.53
2017-09-30T08:32:18.463Z,82.39
2017-09-30T08:32:58.999Z,82.43
2017-09-30T08:33:39.560Z,81.95
2017-09-30T08:34:20.271Z,81.85
2017-09-30T08:35:00.806Z,81.95
2017-09-30T08:35:41.363Z,81.76
2017-09-30T08:36:21.857Z,82.14
2017-09-30T08:37:02.481Z,82.14
2017-09-30T08:37:43.072Z,82.34
2017-09-30T08:38:23.611Z,82.24
2017-09-30T08:39:04.135Z,81.95
2017-09-30T08:39:44.732Z,81.85
2017-09-30T08:40:25.270Z,81.66
2017-09-30T08:41:05.835Z,82.1
2017-09-30T08:41:46.386Z,82.62
2017-09-30T08:42:26.933Z,82.05
2017-09-30T08:43:07.452Z,82.29
2017-09-30T08:43:47.978Z,83.11
2017-09-30T08:44:28.564Z,82.72
2017-09-30T08:45:09.081Z,82.62
2017-09-30T08:45:49.657Z,83.01
2017-09-30T08:46:30.275Z,82.72
2017-09-30T08:47:10.800Z,82.43
2017-09-30T08:47:51.288Z,82.53
2017-09-30T08:48:31.860Z,82.34
2017-09-30T08:49:12.433Z,83.11
2017-09-30T08:49:53.109Z,82.14
2017-09-30T08:50:33.756Z,82.43
2017-09-30T08:51:14.258Z,82.53
2017-09-30T08:51:54.844Z,82.62
2017-09-30T08:52:35.381Z,82.92
2017-09-30T08:53:15.989Z,82.24
2017-09-30T08:53:56.518Z,82.34
2017-09-30T08:54:37.071Z,82.34